createdAt,value
2022-09-12T00:04:48.198Z,14.77
2022-09-12T00:15:10.734Z,14.86
2022-09-12T00:25:32.191Z,14.78
2022-09-12T00:35:53.541Z,14.76
2022-09-12T00:46:35.304Z,14.49
2022-09-12T00:57:01.570Z,14.54
2022-09-12T01:07:23.976Z,14.48
2022-09-12T01:18:09.736Z,14.40
2022-09-12T01:28:58.687Z,14.29
2022-09-12T01:39:29.756Z,14.32
2022-09-12T01:50:03.178Z,14.17
2022-09-12T02:00:25.312Z,14.09
2022-09-12T02:10:53.772Z,14.10
2022-09-12T02:21:18.419Z,13.90
2022-09-12T02:31:48.023Z,13.77
2022-09-12T02:42:09.559Z,13.81
2022-09-12T02:52:31.608Z,13.71
2022-09-12T03:03:00.624Z,13.41
2022-09-12T03:13:37.894Z,13.74
2022-09-12T03:24:11.707Z,13.58
2022-09-12T03:34:33.226Z,13.47
2022-09-12T03:44:54.660Z,13.49
2022-09-12T03:55:16.318Z,14.00
2022-09-12T04:05:37.825Z,13.46
2022-09-12T04:16:00.059Z,13.47
2022-09-12T04:26:21.573Z,13.53
2022-09-12T04:36:43.110Z,13.33
2022-09-12T04:47:04.524Z,13.41
2022-09-12T04:57:26.182Z,13.36
2022-09-12T05:07:47.545Z,13.24
2022-09-12T05:18:08.995Z,13.45
2022-09-12T05:28:33.319Z,13.37
2022-09-12T05:38:55.454Z,13.47
2022-09-12T05:49:16.959Z,13.58
2022-09-12T05:59:38.627Z,13.88
2022-09-12T06:09:59.979Z,14.01
2022-09-12T06:20:21.611Z,14.10
2022-09-12T06:30:43.226Z,14.44
2022-09-12T06:41:06.672Z,14.66
2022-09-12T06:51:28.773Z,14.85
2022-09-12T07:01:50.852Z,15.35
2022-09-12T07:12:12.576Z,15.80
2022-09-12T07:22:34.037Z,16.26
2022-09-12T07:32:55.420Z,16.47
2022-09-12T07:43:16.859Z,16.76
2022-09-12T07:53:40.837Z,16.95
2022-09-12T08:04:04.727Z,17.03
2022-09-12T08:14:27.505Z,17.22
2022-09-12T08:24:49.672Z,17.40
2022-09-12T08:35:11.134Z,17.69
2022-09-12T08:45:39.161Z,17.94
2022-09-12T08:56:03.310Z,18.27
2022-09-12T09:06:33.919Z,18.50
2022-09-12T09:16:57.106Z,18.58
2022-09-12T09:27:40.856Z,18.87
2022-09-12T09:38:16.790Z,19.19
2022-09-12T09:48:43.983Z,19.24
2022-09-12T09:59:15.448Z,19.40
2022-09-12T10:09:38.380Z,19.41
2022-09-12T10:20:19.795Z,19.82
2022-09-12T10:30:52.765Z,20.12
2022-09-12T10:41:14.319Z,20.25
2022-09-12T10:51:35.779Z,20.49
2022-09-12T11:02:09.978Z,20.64
2022-09-12T11:12:47.333Z,20.84
2022-09-12T11:23:21.552Z,20.92
2022-09-12T11:33:46.108Z,20.95
2022-09-12T11:44:28.656Z,21.06
2022-09-12T11:55:12.708Z,21.23
2022-09-12T12:05:34.105Z,20.95
2022-09-12T12:16:00.905Z,21.42
2022-09-12T12:26:40.705Z,21.78
2022-09-12T12:37:22.498Z,22.06
2022-09-12T12:47:57.148Z,22.19
2022-09-12T12:58:28.356Z,22.41
2022-09-12T13:09:00.159Z,22.62
2022-09-12T13:19:28.011Z,22.79
2022-09-12T13:29:50.238Z,22.67
2022-09-12T13:40:22.678Z,22.45
2022-09-12T13:50:57.649Z,22.55
2022-09-12T14:01:19.155Z,22.72
2022-09-12T14:11:40.714Z,22.95
2022-09-12T14:22:02.371Z,22.83
2022-09-12T14:32:26.252Z,22.54
2022-09-12T14:42:53.035Z,23.06
2022-09-12T14:53:17.431Z,22.90
2022-09-12T15:03:43.950Z,22.77
2022-09-12T15:14:13.875Z,23.21
2022-09-12T15:24:35.326Z,23.16
2022-09-12T15:34:56.866Z,22.93
2022-09-12T15:45:25.836Z,22.81
2022-09-12T15:55:47.418Z,22.90
2022-09-12T16:06:11.007Z,22.91
2022-09-12T16:16:32.621Z,22.88
2022-09-12T16:26:56.883Z,23.23
2022-09-12T16:37:22.449Z,23.00
2022-09-12T16:47:43.951Z,22.67
2022-09-12T16:58:05.403Z,22.53
2022-09-12T17:08:28.723Z,22.43
2022-09-12T17:18:51.918Z,22.37
2022-09-12T17:29:14.102Z,22.00
2022-09-12T17:39:35.572Z,21.78
2022-09-12T17:50:09.375Z,21.62
2022-09-12T18:00:57.147Z,21.15
2022-09-12T18:11:18.634Z,21.16
2022-09-12T18:21:40.226Z,20.63
2022-09-12T18:32:01.949Z,20.50
2022-09-12T18:42:24.895Z,20.31
2022-09-12T18:52:46.458Z,20.21
2022-09-12T19:03:08.049Z,19.99
2022-09-12T19:13:29.939Z,19.65
2022-09-12T19:23:53.267Z,19.56
2022-09-12T19:34:15.519Z,19.57
2022-09-12T19:44:37.100Z,19.64
2022-09-12T19:54:58.532Z,19.91
2022-09-12T20:05:20.847Z,19.78
2022-09-12T20:15:42.374Z,19.55
2022-09-12T20:26:04.523Z,19.29
2022-09-12T20:36:26.446Z,19.14
2022-09-12T20:46:47.934Z,19.08
2022-09-12T20:57:09.484Z,19.24
2022-09-12T21:07:30.938Z,19.23
2022-09-12T21:17:52.657Z,19.30
2022-09-12T21:28:15.579Z,19.26
2022-09-12T21:38:37.314Z,19.19
2022-09-12T21:48:58.953Z,19.41
2022-09-12T21:59:20.584Z,19.22
2022-09-12T22:09:42.668Z,19.19
2022-09-12T22:20:04.624Z,18.51
2022-09-12T22:30:27.357Z,18.54
2022-09-12T22:40:48.938Z,18.32
2022-09-12T22:51:10.845Z,18.38
2022-09-12T23:01:33.229Z,18.37
2022-09-12T23:11:54.682Z,18.48
2022-09-12T23:22:16.175Z,18.51
2022-09-12T23:32:37.605Z,18.40
2022-09-12T23:42:59.057Z,18.52
2022-09-12T23:53:21.131Z,18.10
